createdAt,value
2017-08-12T00:01:46.423Z,26.03
2017-08-12T00:04:13.834Z,24.80
2017-08-12T00:06:41.273Z,20.93
2017-08-12T00:09:08.768Z,22.73
2017-08-12T00:11:36.611Z,22.20
2017-08-12T00:14:04.051Z,21.70
2017-08-12T00:16:31.531Z,23.60
2017-08-12T00:18:58.990Z,21.80
2017-08-12T00:21:26.429Z,20.20
2017-08-12T00:23:53.879Z,25.70
2017-08-12T00:26:21.302Z,25.90
2017-08-12T00:28:48.735Z,23.73
2017-08-12T00:31:16.188Z,25.10
2017-08-12T00:33:43.629Z,24.13
2017-08-12T00:36:11.055Z,19.40
2017-08-12T00:38:39.080Z,25.03
2017-08-12T00:41:06.506Z,24.03
2017-08-12T00:43:33.934Z,25.00
2017-08-12T00:46:01.390Z,25.83
2017-08-12T00:48:28.802Z,25.20
2017-08-12T00:50:56.286Z,24.50
2017-08-12T00:53:23.730Z,24.90
2017-08-12T00:55:51.154Z,24.47
2017-08-12T00:58:18.622Z,24.50
2017-08-12T01:00:46.074Z,24.10
2017-08-12T01:03:13.523Z,21.07
2017-08-12T01:05:41.165Z,22.33
2017-08-12T01:08:08.614Z,24.03
2017-08-12T01:10:36.055Z,23.10
2017-08-12T01:13:03.670Z,19.93
2017-08-12T01:15:31.131Z,21.10
2017-08-12T01:17:58.554Z,22.13
2017-08-12T01:20:26.047Z,24.10
2017-08-12T01:22:53.475Z,20.83
2017-08-12T01:25:20.907Z,21.33
2017-08-12T01:27:48.355Z,20.77
2017-08-12T01:30:15.807Z,18.93
2017-08-12T01:32:43.222Z,16.10
2017-08-12T01:35:10.697Z,18.27
2017-08-12T01:37:38.132Z,19.80
2017-08-12T01:40:05.948Z,19.00
2017-08-12T01:42:33.409Z,21.00
2017-08-12T01:45:00.870Z,20.50
2017-08-12T01:47:28.305Z,20.23
2017-08-12T01:49:56.153Z,22.10
2017-08-12T01:52:23.584Z,20.63
2017-08-12T01:54:51.046Z,20.43
2017-08-12T01:57:18.602Z,22.93
2017-08-12T01:59:46.032Z,21.17
2017-08-12T02:02:13.448Z,21.70
2017-08-12T02:04:42.632Z,23.00
2017-08-12T02:07:10.059Z,20.70
2017-08-12T02:09:37.492Z,23.83
2017-08-12T02:12:05.354Z,23.03
2017-08-12T02:14:32.817Z,25.63
2017-08-12T02:17:00.243Z,24.53
2017-08-12T02:19:27.705Z,22.90
2017-08-12T02:21:55.135Z,25.13
2017-08-12T02:24:22.559Z,25.63
2017-08-12T02:26:50.183Z,24.80
2017-08-12T02:29:17.624Z,25.90
2017-08-12T02:31:45.451Z,21.97
2017-08-12T02:34:12.904Z,29.70
2017-08-12T02:36:40.348Z,28.87
2017-08-12T02:39:07.776Z,25.17
2017-08-12T02:41:35.791Z,26.10
2017-08-12T02:44:03.226Z,26.10
2017-08-12T02:46:30.655Z,29.33
2017-08-12T02:48:58.272Z,30.10
2017-08-12T02:51:25.688Z,26.47
2017-08-12T02:53:53.516Z,28.30
2017-08-12T02:56:20.971Z,28.90
2017-08-12T02:58:48.639Z,29.40
2017-08-12T03:01:16.057Z,31.30
2017-08-12T03:03:44.057Z,26.53
2017-08-12T03:06:11.466Z,27.33
2017-08-12T03:08:38.893Z,28.60
2017-08-12T03:11:06.331Z,23.60
2017-08-12T03:13:33.801Z,24.40
2017-08-12T03:16:01.234Z,27.97
2017-08-12T03:18:29.052Z,26.70
2017-08-12T03:20:56.513Z,28.33
2017-08-12T03:23:23.941Z,27.23
2017-08-12T03:25:51.367Z,22.60
2017-08-12T03:28:18.825Z,26.00
2017-08-12T03:30:46.241Z,26.27
2017-08-12T03:33:13.659Z,28.80
2017-08-12T03:35:41.146Z,30.87
2017-08-12T03:38:08.555Z,27.20
2017-08-12T03:40:36.157Z,27.60
2017-08-12T03:43:03.583Z,23.83
2017-08-12T03:45:31.035Z,24.50
2017-08-12T03:47:58.524Z,28.50
2017-08-12T03:50:25.938Z,28.20
2017-08-12T03:52:53.489Z,27.37
2017-08-12T03:55:21.412Z,24.70
2017-08-12T03:57:48.862Z,24.23
2017-08-12T04:00:16.287Z,26.50
2017-08-12T04:02:44.146Z,24.10
2017-08-12T04:05:11.587Z,26.23
2017-08-12T04:07:39.019Z,23.03
2017-08-12T04:10:06.559Z,25.07
2017-08-12T04:12:33.985Z,24.53
2017-08-12T04:15:01.412Z,25.97
2017-08-12T04:17:28.878Z,26.07
2017-08-12T04:19:56.307Z,22.60
2017-08-12T04:22:24.129Z,26.27
2017-08-12T04:24:51.598Z,23.53
2017-08-12T04:27:19.021Z,27.37
2017-08-12T04:29:46.483Z,24.40
2017-08-12T04:32:13.918Z,23.40
2017-08-12T04:34:41.383Z,25.83
2017-08-12T04:37:08.823Z,22.80
2017-08-12T04:39:36.291Z,25.10
2017-08-12T04:42:03.765Z,23.10
2017-08-12T04:44:31.199Z,22.93
2017-08-12T04:46:58.832Z,23.70
2017-08-12T04:49:26.309Z,20.30
2017-08-12T04:51:53.744Z,20.57
2017-08-12T04:54:21.691Z,24.27
2017-08-12T04:56:49.149Z,18.87
2017-08-12T04:59:17.001Z,20.97
2017-08-12T05:01:44.437Z,20.87
2017-08-12T05:04:11.914Z,20.97
2017-08-12T05:06:39.384Z,20.67
2017-08-12T05:09:06.830Z,19.10
2017-08-12T05:11:34.283Z,22.40
2017-08-12T05:14:01.914Z,21.03
2017-08-12T05:16:29.780Z,20.53
2017-08-12T05:18:57.193Z,26.13
2017-08-12T05:21:24.693Z,21.17
2017-08-12T05:23:52.132Z,23.40
2017-08-12T05:26:19.580Z,22.77
2017-08-12T05:28:47.088Z,21.90
2017-08-12T05:31:14.522Z,26.53
2017-08-12T05:33:41.948Z,25.70
2017-08-12T05:36:09.420Z,25.27
2017-08-12T05:38:36.848Z,22.53
2017-08-12T05:41:04.271Z,28.17
2017-08-12T05:43:31.760Z,24.50
2017-08-12T05:45:59.200Z,25.00
2017-08-12T05:48:26.642Z,26.90
2017-08-12T05:50:54.168Z,26.03
2017-08-12T05:53:21.632Z,26.30
2017-08-12T05:55:49.066Z,29.00
2017-08-12T05:58:16.532Z,26.23
2017-08-12T06:00:43.975Z,32.60
2017-08-12T06:03:11.435Z,28.03
2017-08-12T06:05:38.863Z,32.77
2017-08-12T06:08:06.325Z,26.63
2017-08-12T06:10:33.780Z,29.87
2017-08-12T06:13:01.207Z,34.70
2017-08-12T06:15:28.647Z,28.83
2017-08-12T06:17:56.197Z,32.17
2017-08-12T06:20:23.622Z,26.20
2017-08-12T06:22:51.727Z,30.20
2017-08-12T06:25:19.358Z,29.27
2017-08-12T06:27:46.845Z,30.40
2017-08-12T06:30:14.268Z,26.20
2017-08-12T06:32:41.890Z,27.03
2017-08-12T06:35:09.334Z,24.47
2017-08-12T06:37:36.768Z,26.23
2017-08-12T06:40:04.230Z,23.23
2017-08-12T06:42:31.660Z,23.07
2017-08-12T06:44:59.087Z,20.07
2017-08-12T06:47:26.550Z,19.87
2017-08-12T06:49:53.981Z,23.73
2017-08-12T06:52:21.417Z,19.03
2017-08-12T06:54:48.867Z,21.83
2017-08-12T06:57:16.330Z,17.77
2017-08-12T06:59:43.776Z,17.17
2017-08-12T07:02:11.238Z,20.00
2017-08-12T07:04:38.703Z,15.03
2017-08-12T07:07:06.174Z,13.20
2017-08-12T07:09:33.620Z,12.67
2017-08-12T07:12:01.073Z,12.60
2017-08-12T07:14:28.506Z,13.83
2017-08-12T07:16:56.109Z,12.80
2017-08-12T07:19:23.538Z,12.73
2017-08-12T07:21:50.967Z,12.97
2017-08-12T07:24:18.427Z,13.97
2017-08-12T07:26:45.906Z,13.30
2017-08-12T07:29:13.381Z,11.67
2017-08-12T07:31:40.821Z,12.63
2017-08-12T07:34:08.242Z,9.87
2017-08-12T07:36:35.702Z,9.30
2017-08-12T07:39:03.133Z,8.93
2017-08-12T07:41:30.563Z,7.33
2017-08-12T07:43:58.022Z,8.73
2017-08-12T07:46:25.443Z,9.00
2017-08-12T07:48:52.911Z,8.73
2017-08-12T07:51:20.398Z,9.47
2017-08-12T07:53:47.852Z,10.63
2017-08-12T07:56:15.302Z,6.83
2017-08-12T07:58:42.742Z,13.20
2017-08-12T08:01:10.215Z,8.90
2017-08-12T08:03:37.660Z,8.00
2017-08-12T08:06:05.105Z,6.60
2017-08-12T08:08:32.919Z,7.90
2017-08-12T08:11:00.374Z,10.17
2017-08-12T08:13:27.836Z,9.00
2017-08-12T08:15:55.300Z,8.00
2017-08-12T08:18:23.851Z,8.87
2017-08-12T08:20:51.718Z,7.30
2017-08-12T08:23:19.532Z,8.17
2017-08-12T08:25:46.970Z,10.20
2017-08-12T08:28:14.446Z,8.37
2017-08-12T08:30:42.561Z,16.37
2017-08-12T08:33:09.990Z,7.97
2017-08-12T08:35:37.460Z,6.33
2017-08-12T08:38:06.042Z,7.53
2017-08-12T08:40:33.453Z,8.63
2017-08-12T08:43:00.941Z,8.83
2017-08-12T08:45:28.351Z,5.97
2017-08-12T08:47:55.770Z,8.90
2017-08-12T08:50:23.233Z,6.07
2017-08-12T08:52:50.642Z,5.20
2017-08-12T08:55:18.081Z,8.37
2017-08-12T08:57:46.556Z,6.60
2017-08-12T09:00:27.656Z,6.47
2017-08-12T09:02:55.108Z,6.00
2017-08-12T09:05:22.577Z,5.83
2017-08-12T09:07:49.991Z,6.40
2017-08-12T09:10:18.029Z,6.93
2017-08-12T09:12:45.448Z,5.90
2017-08-12T09:15:12.870Z,6.77
2017-08-12T09:17:41.151Z,5.23
2017-08-12T09:20:09.386Z,6.83
2017-08-12T09:22:36.874Z,5.70
2017-08-12T09:25:04.314Z,7.77
2017-08-12T09:27:32.416Z,7.50
2017-08-12T09:30:00.052Z,6.97
2017-08-12T09:32:27.470Z,5.83
2017-08-12T09:34:54.877Z,5.63
2017-08-12T09:37:22.463Z,6.13
2017-08-12T09:39:49.894Z,10.17
2017-08-12T09:42:17.326Z,5.27
2017-08-12T09:44:44.782Z,5.90
2017-08-12T09:47:12.203Z,6.40
2017-08-12T09:49:39.629Z,6.67
2017-08-12T09:52:07.071Z,6.70
2017-08-12T09:54:34.513Z,6.90
2017-08-12T09:57:01.942Z,7.80
2017-08-12T09:59:29.384Z,5.87
2017-08-12T10:01:56.812Z,5.30
2017-08-12T10:04:24.266Z,5.60
2017-08-12T10:06:51.973Z,6.50
2017-08-12T10:09:19.389Z,5.03
2017-08-12T10:11:46.809Z,5.97
2017-08-12T10:14:14.944Z,7.30
2017-08-12T10:16:42.383Z,6.67
2017-08-12T10:19:09.836Z,6.93
2017-08-12T10:21:37.473Z,8.13
2017-08-12T10:24:04.909Z,5.83
2017-08-12T10:26:32.719Z,16.73
2017-08-12T10:29:00.195Z,6.10
2017-08-12T10:31:27.607Z,5.63
2017-08-12T10:33:55.051Z,6.10
2017-08-12T10:36:22.515Z,4.40
2017-08-12T10:38:49.916Z,5.00
2017-08-12T10:41:17.379Z,4.67
2017-08-12T10:43:44.832Z,4.83
2017-08-12T10:46:12.258Z,7.77
2017-08-12T10:48:39.725Z,6.07
2017-08-12T10:51:07.148Z,6.80
2017-08-12T10:53:34.625Z,7.53
2017-08-12T10:56:03.067Z,6.70
2017-08-12T10:58:30.497Z,6.97
2017-08-12T11:00:57.906Z,6.93
2017-08-12T11:03:25.367Z,5.10
2017-08-12T11:05:52.786Z,4.17
2017-08-12T11:08:20.374Z,11.80
2017-08-12T11:10:47.851Z,6.37
2017-08-12T11:13:15.253Z,5.50
2017-08-12T11:15:42.714Z,3.87
2017-08-12T11:18:10.176Z,3.97
2017-08-12T11:20:37.644Z,7.97
2017-08-12T11:23:05.072Z,4.10
2017-08-12T11:25:32.692Z,6.77
2017-08-12T11:28:00.113Z,3.40
2017-08-12T11:30:27.527Z,5.07
2017-08-12T11:32:55.450Z,3.33
2017-08-12T11:35:22.879Z,3.57
2017-08-12T11:37:50.327Z,3.97
2017-08-12T11:40:17.836Z,3.83
2017-08-12T11:42:45.266Z,3.73
2017-08-12T11:45:12.768Z,4.50
2017-08-12T11:47:40.409Z,3.37
2017-08-12T11:50:07.839Z,3.70
2017-08-12T11:52:35.744Z,3.37
2017-08-12T11:55:03.478Z,3.20
2017-08-12T11:57:32.111Z,3.40
2017-08-12T12:00:00.206Z,4.10
2017-08-12T12:02:27.720Z,5.03
2017-08-12T12:04:55.531Z,4.73
2017-08-12T12:07:23.224Z,4.13
2017-08-12T12:09:50.624Z,5.10
2017-08-12T12:12:18.122Z,3.80
2017-08-12T12:14:45.546Z,3.20
2017-08-12T12:17:12.971Z,3.90
2017-08-12T12:19:40.597Z,4.87
2017-08-12T12:22:08.039Z,3.20
2017-08-12T12:24:35.455Z,4.80
2017-08-12T12:27:02.914Z,5.10
2017-08-12T12:29:30.349Z,5.10
2017-08-12T12:31:58.113Z,3.67
2017-08-12T12:34:25.554Z,4.20
2017-08-12T12:36:53.012Z,4.33
2017-08-12T12:39:20.823Z,3.87
2017-08-12T12:41:48.308Z,9.20
2017-08-12T12:44:15.735Z,3.73
2017-08-12T12:46:43.162Z,4.20
2017-08-12T12:49:10.750Z,6.13
2017-08-12T12:51:38.170Z,6.90
2017-08-12T12:54:05.631Z,8.30
2017-08-12T12:56:33.496Z,8.00
2017-08-12T12:59:00.921Z,8.20
2017-08-12T13:01:28.353Z,9.50
2017-08-12T13:03:56.208Z,8.53
2017-08-12T13:06:23.629Z,7.53
2017-08-12T13:08:51.051Z,8.90
2017-08-12T13:11:18.526Z,8.00
2017-08-12T13:13:46.302Z,7.80
2017-08-12T13:16:13.795Z,6.90
2017-08-12T13:18:41.205Z,6.37
2017-08-12T13:24:11.551Z,6.27
2017-08-12T13:26:39.473Z,6.30
2017-08-12T13:29:06.900Z,6.50
2017-08-12T13:31:34.323Z,5.90
2017-08-12T13:34:01.780Z,6.60
2017-08-12T13:36:29.218Z,8.67
2017-08-12T13:38:56.656Z,8.70
2017-08-12T13:41:24.117Z,8.73
2017-08-12T13:43:51.537Z,9.97
2017-08-12T13:46:20.234Z,10.40
2017-08-12T13:48:47.734Z,10.70
2017-08-12T13:51:15.156Z,10.33
2017-08-12T13:53:42.987Z,9.93
2017-08-12T13:56:10.427Z,8.90
2017-08-12T13:58:37.860Z,9.70
2017-08-12T14:01:05.686Z,10.37
2017-08-12T14:03:33.146Z,10.27
2017-08-12T14:06:00.567Z,12.00
2017-08-12T14:08:28.013Z,11.33
2017-08-12T14:10:56.030Z,9.30
2017-08-12T14:13:23.443Z,9.60
2017-08-12T14:15:51.885Z,10.83
2017-08-12T14:18:19.351Z,9.63
2017-08-12T14:20:46.762Z,9.70
2017-08-12T14:23:14.238Z,11.67
2017-08-12T14:25:41.670Z,13.17
2017-08-12T14:28:09.491Z,9.17
2017-08-12T14:30:36.967Z,10.13
2017-08-12T14:33:05.326Z,9.43
2017-08-12T14:35:32.823Z,9.33
2017-08-12T14:38:00.243Z,9.87
2017-08-12T14:40:27.673Z,8.20
2017-08-12T14:42:56.018Z,9.80
2017-08-12T14:45:23.760Z,9.83
2017-08-12T14:47:51.194Z,8.93
2017-08-12T14:50:19.357Z,8.57
2017-08-12T14:52:46.801Z,10.40
2017-08-12T14:55:14.573Z,10.33
2017-08-12T14:57:41.992Z,8.27
2017-08-12T15:00:09.506Z,8.07
2017-08-12T15:02:36.923Z,7.20
2017-08-12T15:05:04.339Z,10.37
2017-08-12T15:07:31.955Z,9.33
2017-08-12T15:09:59.389Z,8.03
2017-08-12T15:12:26.822Z,7.07
2017-08-12T15:14:54.276Z,10.80
2017-08-12T15:17:21.723Z,9.00
2017-08-12T15:19:49.244Z,7.30
2017-08-12T15:22:17.064Z,13.10
2017-08-12T15:24:44.523Z,8.57
2017-08-12T15:27:11.940Z,6.60
2017-08-12T15:32:06.820Z,6.57
2017-08-12T15:34:34.243Z,7.07
2017-08-12T15:37:01.835Z,5.63
2017-08-12T15:39:29.273Z,6.77
2017-08-12T15:41:56.694Z,6.13
2017-08-12T15:44:24.143Z,6.07
2017-08-12T15:46:51.574Z,7.00
2017-08-12T15:49:19.028Z,5.33
2017-08-12T15:51:46.484Z,5.53
2017-08-12T15:54:13.954Z,4.50
2017-08-12T15:56:41.791Z,5.03
2017-08-12T15:59:09.221Z,5.17
2017-08-12T16:01:36.677Z,4.90
2017-08-12T16:04:04.151Z,6.60
2017-08-12T16:06:38.330Z,7.30
2017-08-12T16:09:06.000Z,5.77
2017-08-12T16:11:33.445Z,6.03
2017-08-12T16:14:01.014Z,6.03
2017-08-12T16:16:28.603Z,5.50
2017-08-12T16:18:56.036Z,6.00
2017-08-12T16:21:23.487Z,7.17
2017-08-12T16:23:51.810Z,6.10
2017-08-12T16:26:19.874Z,6.30
2017-08-12T16:28:47.348Z,7.83
2017-08-12T16:31:14.789Z,6.90
2017-08-12T16:33:42.212Z,26.13
2017-08-12T16:36:10.019Z,9.20
2017-08-12T16:38:37.484Z,12.93
2017-08-12T16:41:04.951Z,7.43
2017-08-12T16:43:32.366Z,8.40
2017-08-12T16:46:00.199Z,6.40
2017-08-12T16:48:27.686Z,8.03
2017-08-12T16:50:55.140Z,7.40
2017-08-12T16:53:22.574Z,5.93
2017-08-12T16:55:50.335Z,6.23
2017-08-12T16:58:18.344Z,7.17
2017-08-12T17:00:45.834Z,6.67
2017-08-12T17:03:13.285Z,7.40
2017-08-12T17:05:40.711Z,11.03
2017-08-12T17:08:08.168Z,7.37
2017-08-12T17:10:35.801Z,7.70
2017-08-12T17:13:03.242Z,7.43
2017-08-12T17:15:30.667Z,7.50
2017-08-12T17:17:59.062Z,7.60
2017-08-12T17:20:26.496Z,8.17
2017-08-12T17:22:54.029Z,7.90
2017-08-12T17:25:21.917Z,7.43
2017-08-12T17:27:49.381Z,7.63
2017-08-12T17:30:17.212Z,8.90
2017-08-12T17:32:44.871Z,6.37
2017-08-12T17:35:12.295Z,7.53
2017-08-12T17:37:39.708Z,6.93
2017-08-12T17:40:07.193Z,6.93
2017-08-12T17:42:34.653Z,7.70
2017-08-12T17:45:02.296Z,5.20
2017-08-12T17:47:30.439Z,5.33
2017-08-12T17:49:57.871Z,5.50
2017-08-12T17:52:25.353Z,7.77
2017-08-12T17:54:52.815Z,6.73
2017-08-12T17:57:20.261Z,6.53
2017-08-12T17:59:47.742Z,7.23
2017-08-12T18:02:15.195Z,6.80
2017-08-12T18:04:42.679Z,7.93
2017-08-12T18:07:10.132Z,4.90
2017-08-12T18:09:37.562Z,4.90
2017-08-12T18:12:05.794Z,6.00
2017-08-12T18:14:33.245Z,8.47
2017-08-12T18:17:00.720Z,6.93
2017-08-12T18:19:28.158Z,5.57
2017-08-12T18:21:55.627Z,4.90
2017-08-12T18:24:23.645Z,4.83
2017-08-12T18:26:51.088Z,4.63
2017-08-12T18:29:18.535Z,6.77
2017-08-12T18:31:45.959Z,4.53
2017-08-12T18:34:13.401Z,5.03
2017-08-12T18:36:42.364Z,6.83
2017-08-12T18:39:10.279Z,5.73
2017-08-12T18:41:38.699Z,6.40
2017-08-12T18:44:06.159Z,5.40
2017-08-12T18:46:33.860Z,4.90
2017-08-12T18:49:01.358Z,5.83
2017-08-12T18:51:29.183Z,4.87
2017-08-12T18:53:56.649Z,6.73
2017-08-12T18:56:24.092Z,10.53
2017-08-12T18:58:51.512Z,6.07
2017-08-12T19:01:19.336Z,5.83
2017-08-12T19:03:46.850Z,7.87
2017-08-12T19:06:14.333Z,4.43
2017-08-12T19:08:41.737Z,5.77
2017-08-12T19:11:09.218Z,6.47
2017-08-12T19:13:37.360Z,4.60
2017-08-12T19:16:04.805Z,10.60
2017-08-12T19:18:32.353Z,5.17
2017-08-12T19:21:00.523Z,4.90
2017-08-12T19:23:27.981Z,5.13
2017-08-12T19:25:56.776Z,4.90
2017-08-12T19:28:25.261Z,5.90
2017-08-12T19:30:52.831Z,7.30
2017-08-12T19:33:20.335Z,14.43
2017-08-12T19:35:49.382Z,6.03
2017-08-12T19:38:17.060Z,4.83
2017-08-12T19:40:44.504Z,5.90
2017-08-12T19:43:11.959Z,5.30
2017-08-12T19:45:39.427Z,5.60
2017-08-12T19:48:06.875Z,5.40
2017-08-12T19:50:35.144Z,4.87
2017-08-12T19:53:02.606Z,5.97
2017-08-12T19:55:30.386Z,5.30
2017-08-12T19:57:57.885Z,6.07
2017-08-12T20:00:26.048Z,7.17
2017-08-12T20:02:53.500Z,4.90
2017-08-12T20:05:20.982Z,6.23
2017-08-12T20:07:48.467Z,7.00
2017-08-12T20:10:15.892Z,9.83
2017-08-12T20:12:43.348Z,7.07
2017-08-12T20:15:11.049Z,6.33
2017-08-12T20:17:38.867Z,9.50
2017-08-12T20:20:07.167Z,20.90
2017-08-12T20:22:34.624Z,10.73
2017-08-12T20:25:02.072Z,6.07
2017-08-12T20:27:29.516Z,5.77
2017-08-12T20:29:56.978Z,5.80
2017-08-12T20:32:25.187Z,6.33
2017-08-12T20:34:53.174Z,7.10
2017-08-12T20:37:20.616Z,8.90
2017-08-12T20:39:48.780Z,5.87
2017-08-12T20:42:16.242Z,7.80
2017-08-12T20:44:43.680Z,6.70
2017-08-12T20:47:11.134Z,6.30
2017-08-12T20:49:39.548Z,7.73
2017-08-12T20:52:06.967Z,6.67
2017-08-12T20:54:34.820Z,7.13
2017-08-12T20:57:02.271Z,7.47
2017-08-12T20:59:29.726Z,6.97
2017-08-12T21:01:57.179Z,6.50
2017-08-12T21:04:24.646Z,6.23
2017-08-12T21:06:52.074Z,7.70
2017-08-12T21:09:19.902Z,8.00
2017-08-12T21:11:47.397Z,14.63
2017-08-12T21:14:15.166Z,7.90
2017-08-12T21:16:42.994Z,7.13
2017-08-12T21:19:10.504Z,8.77
2017-08-12T21:21:38.569Z,8.33
2017-08-12T21:24:06.005Z,8.00
2017-08-12T21:26:33.457Z,8.53
2017-08-12T21:29:00.870Z,10.47
2017-08-12T21:31:28.323Z,8.60
2017-08-12T21:33:56.405Z,10.50
2017-08-12T21:36:24.660Z,8.17
2017-08-12T21:38:52.123Z,7.73
2017-08-12T21:41:19.553Z,8.20
2017-08-12T21:43:47.021Z,8.27
2017-08-12T21:46:14.509Z,8.00
2017-08-12T21:48:41.964Z,7.47
2017-08-12T21:51:09.413Z,11.57
2017-08-12T21:53:36.923Z,9.30
2017-08-12T21:56:04.378Z,8.47
2017-08-12T21:58:31.818Z,8.23
2017-08-12T22:00:59.273Z,14.00
2017-08-12T22:03:27.472Z,7.53
2017-08-12T22:05:55.109Z,9.27
2017-08-12T22:08:22.558Z,9.00
2017-08-12T22:10:49.994Z,8.83
2017-08-12T22:13:17.468Z,8.10
2017-08-12T22:15:44.909Z,7.70
2017-08-12T22:18:12.367Z,7.13
2017-08-12T22:20:40.365Z,9.37
2017-08-12T22:23:07.806Z,9.03
2017-08-12T22:25:35.306Z,8.10
2017-08-12T22:28:03.431Z,7.83
2017-08-12T22:30:33.530Z,10.00
2017-08-12T22:33:01.057Z,8.00
2017-08-12T22:35:28.480Z,8.30
2017-08-12T22:37:56.334Z,7.03
2017-08-12T22:40:23.793Z,10.10
2017-08-12T22:42:51.237Z,7.93
2017-08-12T22:45:19.479Z,8.60
2017-08-12T22:47:46.922Z,7.57
2017-08-12T22:50:14.727Z,8.43
2017-08-12T22:52:42.156Z,7.70
2017-08-12T22:55:09.588Z,6.50
2017-08-12T22:57:37.014Z,7.23
2017-08-12T23:00:04.435Z,6.80
2017-08-12T23:02:32.266Z,7.00
2017-08-12T23:04:59.721Z,7.20
2017-08-12T23:07:27.132Z,6.00
2017-08-12T23:09:57.246Z,7.50
2017-08-12T23:12:24.680Z,7.73
2017-08-12T23:14:52.096Z,7.90
2017-08-12T23:17:19.528Z,6.93
2017-08-12T23:19:46.993Z,7.93
2017-08-12T23:22:14.414Z,8.50
2017-08-12T23:24:41.879Z,6.87
2017-08-12T23:27:09.301Z,8.33
2017-08-12T23:29:36.716Z,7.50
2017-08-12T23:32:05.651Z,9.63
2017-08-12T23:34:33.068Z,8.33
2017-08-12T23:37:00.535Z,7.83
2017-08-12T23:39:27.965Z,8.10
2017-08-12T23:41:55.383Z,8.33
2017-08-12T23:44:22.803Z,8.10
2017-08-12T23:46:50.238Z,7.17
2017-08-12T23:49:17.679Z,9.07
2017-08-12T23:51:45.491Z,9.70
2017-08-12T23:54:12.944Z,9.33
2017-08-12T23:59:35.865Z,8.80
